createdAt,value
2023-05-03T00:02:24.011Z,26.04
2023-05-03T00:04:58.025Z,26.13
2023-05-03T00:07:28.270Z,26.15
2023-05-03T00:09:58.371Z,26.18
2023-05-03T00:12:29.306Z,26.20
2023-05-03T00:14:59.173Z,26.22
2023-05-03T00:17:32.340Z,26.24
2023-05-03T00:20:05.778Z,26.27
2023-05-03T00:22:35.884Z,26.28
2023-05-03T00:25:07.222Z,26.29
2023-05-03T00:27:37.470Z,26.30
2023-05-03T00:30:08.581Z,26.32
2023-05-03T00:32:41.878Z,26.34
2023-05-03T00:35:32.333Z,26.37
2023-05-03T00:38:15.116Z,26.39
2023-05-03T00:41:26.322Z,26.38
2023-05-03T00:44:14.241Z,26.40
2023-05-03T00:47:22.085Z,26.40
2023-05-03T00:50:34.482Z,26.42
2023-05-03T00:53:13.903Z,26.50
2023-05-03T00:58:33.861Z,26.48
2023-05-03T01:01:05.409Z,26.46
2023-05-03T01:03:38.555Z,26.38
2023-05-03T01:06:17.134Z,26.38
2023-05-03T01:08:49.848Z,26.41
2023-05-03T01:11:22.465Z,26.41
2023-05-03T01:14:30.447Z,26.40
2023-05-03T01:17:31.845Z,26.38
2023-05-03T01:20:55.142Z,26.37
2023-05-03T01:24:10.099Z,26.37
2023-05-03T01:26:50.915Z,26.35
2023-05-03T01:29:41.094Z,26.34
2023-05-03T01:36:01.716Z,26.33
2023-05-03T01:38:38.152Z,26.32
2023-05-03T01:49:47.230Z,26.30
2023-05-03T01:52:18.897Z,26.29
2023-05-03T01:54:49.024Z,26.29
2023-05-03T01:57:19.175Z,26.28
2023-05-03T01:59:49.166Z,26.27
2023-05-03T02:02:58.663Z,26.26
2023-05-03T02:05:28.866Z,26.26
2023-05-03T02:14:51.510Z,26.23
2023-05-03T02:17:36.727Z,26.22
2023-05-03T02:20:41.464Z,26.20
2023-05-03T02:23:28.237Z,26.19
2023-05-03T02:28:48.607Z,26.19
2023-05-03T02:31:20.399Z,26.18
2023-05-03T02:33:50.790Z,26.18
2023-05-03T02:36:21.103Z,26.17
2023-05-03T02:38:53.908Z,26.17
2023-05-03T02:44:52.653Z,26.21
2023-05-03T02:47:45.263Z,26.14
2023-05-03T02:50:37.360Z,26.16
2023-05-03T02:53:27.077Z,26.17
2023-05-03T02:55:58.183Z,26.16
2023-05-03T02:58:28.316Z,26.15
2023-05-03T03:01:04.340Z,26.15
2023-05-03T03:03:36.536Z,26.02
2023-05-03T03:06:09.156Z,26.12
2023-05-03T03:08:40.733Z,26.12
2023-05-03T03:12:16.828Z,26.11
2023-05-03T03:14:56.565Z,26.09
2023-05-03T03:17:56.260Z,26.06
2023-05-03T03:21:03.687Z,26.06
2023-05-03T03:27:17.847Z,26.02
2023-05-03T03:29:42.167Z,26.02
2023-05-03T03:32:36.855Z,26.00
2023-05-03T03:38:02.426Z,25.88
2023-05-03T03:40:35.676Z,25.98
2023-05-03T03:43:08.706Z,25.90
2023-05-03T03:45:44.222Z,25.93
2023-05-03T03:48:13.254Z,25.95
2023-05-03T03:51:05.803Z,25.93
2023-05-03T03:54:23.678Z,25.93
2023-05-03T03:57:12.638Z,25.93
2023-05-03T04:00:29.770Z,25.91
2023-05-03T04:03:34.476Z,25.89
2023-05-03T04:06:25.194Z,25.86
2023-05-03T04:09:19.438Z,25.87
2023-05-03T04:12:09.617Z,25.85
2023-05-03T04:15:01.273Z,25.84
2023-05-03T04:18:21.191Z,25.84
2023-05-03T04:21:42.341Z,25.68
2023-05-03T04:24:37.688Z,25.81
2023-05-03T04:27:34.164Z,25.79
2023-05-03T04:30:06.383Z,25.78
2023-05-03T04:33:04.183Z,25.75
2023-05-03T04:36:09.840Z,25.76
2023-05-03T04:38:56.900Z,25.75
2023-05-03T04:44:53.735Z,25.68
2023-05-03T04:56:57.499Z,25.68
2023-05-03T05:00:10.343Z,25.67
2023-05-03T05:03:26.781Z,25.64
2023-05-03T05:06:19.650Z,25.64
2023-05-03T05:08:58.385Z,25.62
2023-05-03T05:21:04.381Z,25.58
2023-05-03T05:24:09.146Z,25.55
2023-05-03T05:27:44.682Z,25.54
2023-05-03T05:32:59.750Z,25.56
2023-05-03T05:36:07.331Z,25.51
2023-05-03T05:38:04.071Z,25.49
2023-05-03T06:08:53.905Z,25.31
2023-05-03T06:11:23.784Z,25.31
2023-05-03T06:13:53.652Z,25.30
2023-05-03T06:16:23.669Z,25.29
2023-05-03T06:18:53.649Z,25.28
2023-05-03T06:21:31.193Z,25.28
2023-05-03T06:27:33.573Z,25.26
2023-05-03T06:30:31.705Z,25.26
2023-05-03T06:33:20.330Z,25.24
2023-05-03T06:35:48.576Z,25.23
2023-05-03T06:38:20.179Z,25.22
2023-05-03T06:40:51.272Z,25.19
2023-05-03T06:43:22.677Z,25.20
2023-05-03T06:45:57.046Z,25.19
2023-05-03T06:48:42.094Z,25.06
2023-05-03T06:51:31.733Z,25.06
2023-05-03T06:56:38.447Z,25.15
2023-05-03T06:59:10.064Z,25.14
2023-05-03T07:01:40.047Z,25.12
2023-05-03T07:04:10.127Z,25.13
2023-05-03T07:06:55.872Z,25.08
2023-05-03T07:09:43.699Z,25.09
2023-05-03T07:12:31.881Z,25.10
2023-05-03T07:15:01.817Z,25.02
2023-05-03T07:17:31.883Z,25.06
2023-05-03T07:20:03.867Z,25.04
2023-05-03T07:22:34.704Z,25.03
2023-05-03T07:25:06.587Z,24.96
2023-05-03T07:27:37.567Z,24.99
2023-05-03T07:35:58.777Z,24.96
2023-05-03T07:38:28.703Z,24.95
2023-05-03T07:40:58.709Z,24.95
2023-05-03T07:43:28.572Z,24.93
2023-05-03T07:45:59.636Z,24.93
2023-05-03T07:52:16.896Z,24.91
2023-05-03T07:55:37.249Z,24.89
2023-05-03T07:58:38.814Z,24.82
2023-05-03T08:00:56.506Z,24.86
2023-05-03T08:07:03.923Z,24.77
2023-05-03T08:10:06.272Z,24.81
2023-05-03T08:12:42.439Z,24.79
2023-05-03T08:15:12.621Z,24.79
2023-05-03T08:17:43.771Z,24.77
2023-05-03T08:20:15.486Z,24.75
2023-05-03T08:22:47.423Z,24.74
2023-05-03T08:25:18.390Z,24.73
2023-05-03T08:28:15.672Z,24.72
2023-05-03T08:33:59.749Z,24.70
2023-05-03T08:39:53.494Z,24.68
2023-05-03T08:42:52.356Z,24.66
2023-05-03T08:49:02.159Z,24.64
2023-05-03T08:51:40.695Z,24.62
2023-05-03T08:54:14.910Z,24.60
2023-05-03T08:56:45.509Z,24.60
2023-05-03T08:59:17.007Z,24.57
2023-05-03T09:01:47.076Z,24.57
2023-05-03T09:04:18.415Z,24.54
2023-05-03T09:06:57.683Z,24.53
2023-05-03T09:10:02.477Z,24.52
2023-05-03T09:13:14.166Z,24.51
2023-05-03T09:16:03.261Z,24.50
2023-05-03T09:18:59.414Z,24.48
2023-05-03T09:21:54.349Z,24.47
2023-05-03T09:24:52.983Z,24.46
2023-05-03T09:26:58.076Z,24.44
2023-05-03T09:29:36.514Z,24.42
2023-05-03T09:32:08.209Z,24.41
2023-05-03T09:34:39.045Z,24.39
2023-05-03T09:37:11.000Z,24.35
2023-05-03T09:40:13.773Z,24.37
2023-05-03T09:43:12.424Z,24.35
2023-05-03T09:46:09.998Z,24.34
2023-05-03T09:48:59.283Z,24.33
2023-05-03T09:51:29.277Z,24.32
2023-05-03T09:54:00.699Z,24.30
2023-05-03T09:56:30.686Z,24.29
2023-05-03T10:02:10.208Z,24.32
2023-05-03T10:04:43.011Z,24.25
2023-05-03T10:10:36.419Z,24.27
2023-05-03T10:13:23.258Z,24.22
2023-05-03T10:16:33.743Z,24.20
2023-05-03T10:19:34.661Z,24.20
2023-05-03T10:22:15.028Z,24.17
2023-05-03T10:25:26.243Z,24.15
2023-05-03T10:28:26.671Z,24.13
2023-05-03T10:31:27.071Z,24.11
2023-05-03T10:34:25.575Z,24.09
2023-05-03T10:37:29.206Z,24.08
2023-05-03T10:43:38.268Z,24.06
2023-05-03T10:46:32.694Z,24.05
2023-05-03T10:49:22.283Z,24.02
2023-05-03T10:58:17.442Z,23.98
2023-05-03T11:01:20.893Z,23.83
2023-05-03T11:04:19.630Z,23.96
2023-05-03T11:07:49.744Z,23.94
2023-05-03T11:10:20.408Z,23.92
2023-05-03T11:13:29.358Z,23.89
2023-05-03T11:16:37.341Z,23.88
2023-05-03T11:19:46.071Z,23.87
2023-05-03T11:22:39.446Z,23.85
2023-05-03T11:25:34.274Z,23.85
2023-05-03T11:31:43.880Z,23.81
2023-05-03T11:34:16.413Z,23.81
2023-05-03T11:36:46.486Z,23.78
2023-05-03T11:39:18.740Z,23.76
2023-05-03T11:41:49.661Z,23.75
2023-05-03T11:44:19.629Z,23.75
2023-05-03T11:47:03.664Z,23.74
2023-05-03T11:49:37.283Z,23.73
2023-05-03T11:52:50.772Z,23.72
2023-05-03T11:55:35.567Z,23.70
2023-05-03T12:04:57.938Z,23.67
2023-05-03T12:07:52.956Z,23.64
2023-05-03T12:11:26.055Z,23.64
2023-05-03T12:14:00.896Z,23.63
2023-05-03T12:16:53.642Z,23.61
2023-05-03T12:19:44.008Z,23.59
2023-05-03T12:22:41.324Z,23.59
2023-05-03T12:28:39.322Z,23.56
2023-05-03T12:35:07.644Z,23.53
2023-05-03T12:38:09.718Z,23.52
2023-05-03T12:40:52.294Z,23.52
2023-05-03T12:43:43.630Z,23.51
2023-05-03T12:46:45.209Z,23.49
2023-05-03T12:49:29.617Z,23.48
2023-05-03T12:54:55.266Z,23.47
2023-05-03T12:57:24.045Z,23.43
2023-05-03T13:00:02.068Z,23.44
2023-05-03T13:05:03.745Z,23.42
2023-05-03T13:11:26.335Z,23.41
2023-05-03T13:16:58.058Z,23.44
2023-05-03T13:20:07.780Z,23.39
2023-05-03T13:23:15.580Z,23.38
2023-05-03T13:26:07.730Z,23.35
2023-05-03T13:29:10.549Z,23.37
2023-05-03T13:31:48.900Z,23.35
2023-05-03T13:35:03.592Z,23.35
2023-05-03T13:37:52.946Z,23.35
2023-05-03T13:41:09.689Z,23.34
2023-05-03T13:50:10.248Z,23.33
2023-05-03T13:53:03.603Z,23.33
2023-05-03T13:56:16.702Z,23.33
2023-05-03T13:59:20.453Z,23.32
2023-05-03T14:01:57.178Z,23.32
2023-05-03T14:11:06.127Z,23.31
2023-05-03T14:13:55.475Z,23.31
2023-05-03T14:16:53.902Z,23.30
2023-05-03T14:19:54.626Z,23.30
2023-05-03T14:22:57.860Z,23.29
2023-05-03T14:26:20.255Z,23.22
2023-05-03T14:29:09.594Z,23.29
2023-05-03T14:31:59.997Z,23.23
2023-05-03T14:34:51.515Z,23.28
2023-05-03T14:41:28.128Z,23.28
2023-05-03T14:44:23.561Z,23.29
2023-05-03T14:47:24.832Z,23.27
2023-05-03T14:50:21.005Z,23.28
2023-05-03T14:53:04.590Z,23.27
2023-05-03T14:58:57.510Z,23.28
2023-05-03T15:02:13.045Z,23.28
2023-05-03T15:05:08.201Z,23.19
2023-05-03T15:08:13.393Z,23.28
2023-05-03T15:14:10.945Z,23.31
2023-05-03T15:17:03.822Z,23.27
2023-05-03T15:20:06.248Z,23.25
2023-05-03T15:26:26.224Z,23.27
2023-05-03T15:29:00.922Z,23.27
2023-05-03T15:34:19.279Z,23.26
2023-05-03T15:36:49.159Z,23.26
2023-05-03T15:39:19.155Z,23.26
2023-05-03T15:41:49.148Z,23.27
2023-05-03T15:44:38.646Z,23.27
2023-05-03T15:47:13.153Z,23.27
2023-05-03T15:50:20.561Z,23.28
2023-05-03T15:53:28.449Z,23.25
2023-05-03T15:59:16.305Z,23.32
2023-05-03T16:08:39.906Z,23.14
2023-05-03T16:11:25.080Z,23.27
2023-05-03T16:14:27.910Z,23.27
2023-05-03T16:17:04.526Z,23.26
2023-05-03T16:19:34.660Z,23.27
2023-05-03T16:22:04.621Z,23.26
2023-05-03T16:27:27.144Z,23.26
2023-05-03T16:29:57.105Z,23.28
2023-05-03T16:32:50.889Z,23.27
2023-05-03T16:35:57.639Z,23.27
2023-05-03T16:38:45.816Z,23.27
2023-05-03T16:44:19.993Z,23.32
2023-05-03T16:47:05.192Z,23.27
2023-05-03T16:49:38.062Z,23.28
2023-05-03T16:52:09.113Z,23.28
2023-05-03T16:54:39.458Z,23.28
2023-05-03T16:57:10.463Z,23.29
2023-05-03T16:59:40.329Z,23.27
2023-05-03T17:02:14.171Z,23.29
2023-05-03T17:07:21.117Z,23.29
2023-05-03T17:09:51.170Z,23.30
2023-05-03T17:12:22.192Z,23.30
2023-05-03T17:14:52.170Z,23.30
2023-05-03T17:17:33.306Z,23.30
2023-05-03T17:20:17.112Z,23.30
2023-05-03T17:25:37.773Z,23.30
2023-05-03T17:28:07.766Z,23.30
2023-05-03T17:30:42.600Z,23.31
2023-05-03T17:33:12.967Z,23.31
2023-05-03T17:36:06.435Z,23.30
2023-05-03T17:39:10.822Z,23.32
2023-05-03T17:41:47.299Z,23.31
2023-05-03T17:47:38.094Z,23.33
2023-05-03T17:50:38.708Z,23.32
2023-05-03T17:53:35.773Z,23.32
2023-05-03T18:02:45.126Z,23.32
2023-05-03T18:05:24.418Z,23.33
2023-05-03T18:09:18.984Z,23.33
2023-05-03T18:10:26.019Z,23.34
2023-05-03T18:12:57.628Z,23.34
2023-05-03T18:15:28.985Z,23.33
2023-05-03T18:18:25.064Z,23.25
2023-05-03T18:23:39.853Z,23.35
2023-05-03T18:26:43.182Z,23.36
2023-05-03T18:29:35.083Z,23.35
2023-05-03T18:35:44.172Z,23.37
2023-05-03T18:38:31.705Z,23.38
2023-05-03T18:43:50.183Z,23.36
2023-05-03T18:46:20.903Z,23.37
2023-05-03T18:48:50.868Z,23.37
2023-05-03T18:51:20.975Z,23.38
2023-05-03T18:54:06.743Z,23.37
2023-05-03T18:59:03.172Z,23.39
2023-05-03T19:01:33.329Z,23.40
2023-05-03T19:04:04.810Z,23.40
2023-05-03T19:06:34.900Z,23.39
2023-05-03T19:09:06.363Z,23.40
2023-05-03T19:11:46.578Z,23.41
2023-05-03T19:14:46.856Z,23.26
2023-05-03T19:18:14.755Z,23.41
2023-05-03T19:21:16.784Z,23.35
2023-05-03T19:26:57.305Z,23.48
2023-05-03T19:30:18.691Z,23.42
2023-05-03T19:38:48.014Z,23.43
2023-05-03T19:44:42.511Z,23.48
2023-05-03T19:47:23.088Z,23.43
2023-05-03T19:49:44.219Z,23.41
2023-05-03T19:52:14.295Z,23.44
2023-05-03T19:54:44.184Z,23.45
2023-05-03T19:57:14.031Z,23.46
2023-05-03T20:00:05.587Z,23.47
2023-05-03T20:03:03.415Z,23.46
2023-05-03T20:05:53.485Z,23.48
2023-05-03T20:09:03.586Z,23.48
2023-05-03T20:21:24.984Z,23.49
2023-05-03T20:24:15.600Z,23.34
2023-05-03T20:27:10.244Z,23.50
2023-05-03T20:30:09.818Z,23.49
2023-05-03T20:33:10.227Z,23.51
2023-05-03T20:36:10.558Z,23.42
2023-05-03T20:38:55.772Z,23.46
2023-05-03T20:44:14.569Z,23.53
2023-05-03T20:46:46.562Z,23.54
2023-05-03T20:49:16.505Z,23.50
2023-05-03T20:51:47.943Z,23.55
2023-05-03T20:54:44.454Z,23.55
2023-05-03T21:00:05.671Z,23.56
2023-05-03T21:03:13.562Z,23.57
2023-05-03T21:05:50.758Z,23.57
2023-05-03T21:08:20.561Z,23.58
2023-05-03T21:10:50.619Z,23.58
2023-05-03T21:13:21.946Z,23.59
2023-05-03T21:15:51.939Z,23.59
2023-05-03T21:18:49.662Z,23.59
2023-05-03T21:21:46.461Z,23.59
2023-05-03T21:24:16.877Z,23.59
2023-05-03T21:27:23.021Z,23.61
2023-05-03T21:39:29.553Z,23.62
2023-05-03T21:42:50.810Z,23.61
2023-05-03T21:45:49.734Z,23.55
2023-05-03T21:49:01.669Z,23.61
2023-05-03T21:51:33.535Z,23.61
2023-05-03T21:54:35.694Z,23.62
2023-05-03T22:00:41.437Z,23.69
2023-05-03T22:03:40.639Z,23.66
2023-05-03T22:06:28.833Z,23.56
2023-05-03T22:09:42.113Z,23.67
2023-05-03T22:12:40.779Z,23.68
2023-05-03T22:15:58.313Z,23.71
2023-05-03T22:18:32.818Z,23.71
2023-05-03T22:21:38.061Z,23.72
2023-05-03T22:27:25.752Z,23.62
2023-05-03T22:30:22.126Z,23.76
2023-05-03T22:33:20.988Z,23.76
2023-05-03T22:42:29.163Z,23.81
2023-05-03T22:46:01.930Z,23.82
2023-05-03T22:48:39.421Z,23.82
2023-05-03T22:51:16.531Z,23.83
2023-05-03T22:56:36.090Z,23.84
2023-05-03T22:59:06.356Z,23.85
2023-05-03T23:01:36.364Z,23.86
2023-05-03T23:04:06.496Z,23.86
2023-05-03T23:06:57.858Z,23.87
2023-05-03T23:10:09.844Z,23.89
2023-05-03T23:12:41.630Z,23.91
2023-05-03T23:15:32.421Z,23.91
2023-05-03T23:18:20.740Z,23.88
2023-05-03T23:20:50.968Z,23.89
2023-05-03T23:23:22.376Z,23.95
2023-05-03T23:25:53.867Z,23.97
2023-05-03T23:28:24.276Z,23.98
2023-05-03T23:31:31.649Z,23.95
2023-05-03T23:34:01.779Z,23.99
2023-05-03T23:37:15.225Z,24.01
2023-05-03T23:40:24.428Z,24.01
2023-05-03T23:45:50.236Z,24.07
2023-05-03T23:48:54.681Z,24.04
2023-05-03T23:51:28.854Z,24.05
2023-05-03T23:56:50.846Z,24.09
2023-05-03T23:59:20.734Z,24.11
